Time;durP1;ratioP1;P1;durP2;ratioP2;P2;SDS_P1;SDS_P2;PMS_P1;PMS_P2;Temp;Humidity;BMP_temperature;BMP_pressure;BME280_temperature;BME280_humidity;BME280_pressure;Samples;Min_cycle;Max_cycle;Signal;HPM_P1;HPM_P2
2022/11/16 00:00:44;;;;;;;;;;;19.90;67.60;;;;;;5052469;28;19979;-61
2022/11/16 00:03:10;;;;;;;;;;;19.90;67.60;;;;;;5054678;28;19924;-61
2022/11/16 00:05:35;;;;;;;;;;;19.90;67.60;;;;;;5056214;28;20426;-61
2022/11/16 00:08:01;;;;;;;;;;;19.90;67.50;;;;;;5056079;28;19932;-61
2022/11/16 00:10:26;;;;;;;;;;;19.90;67.60;;;;;;5054894;28;19970;-61
2022/11/16 00:12:52;;;;;;;;;;;19.80;67.50;;;;;;5038321;28;19932;-61
2022/11/16 00:15:17;;;;;;;;;;;19.80;67.60;;;;;;5055691;28;19929;-61
2022/11/16 00:17:43;;;;;;;;;;;19.80;67.50;;;;;;5054839;28;19925;-61
2022/11/16 00:20:08;;;;;;;;;;;19.80;67.50;;;;;;5055787;28;19925;-61
2022/11/16 00:22:34;;;;;;;;;;;19.80;67.60;;;;;;5055830;28;19947;-61
2022/11/16 00:24:59;;;;;;;;;;;19.80;67.60;;;;;;5054572;28;19935;-61
2022/11/16 00:27:25;;;;;;;;;;;19.80;67.60;;;;;;5055091;28;20291;-60
2022/11/16 00:29:50;;;;;;;;;;;19.80;67.60;;;;;;5055413;28;19979;-61
2022/11/16 00:32:16;;;;;;;;;;;19.80;67.50;;;;;;5054741;28;19931;-62
2022/11/16 00:34:41;;;;;;;;;;;19.80;67.60;;;;;;5055708;28;20002;-61
2022/11/16 00:37:06;;;;;;;;;;;19.80;67.60;;;;;;5055476;28;19931;-61
2022/11/16 00:39:33;;;;;;;;;;;19.80;67.60;;;;;;5054310;28;20383;-61
2022/11/16 00:41:58;;;;;;;;;;;19.70;67.50;;;;;;5055580;28;19960;-61
2022/11/16 00:44:24;;;;;;;;;;;19.70;67.50;;;;;;5054407;28;19967;-61
2022/11/16 00:46:49;;;;;;;;;;;19.70;67.50;;;;;;5055499;28;19997;-61
2022/11/16 00:49:15;;;;;;;;;;;19.70;67.50;;;;;;5054786;28;19925;-61
2022/11/16 00:51:40;;;;;;;;;;;19.70;67.50;;;;;;5054409;28;19931;-61
2022/11/16 00:54:06;;;;;;;;;;;19.70;67.50;;;;;;5055146;28;19924;-61
2022/11/16 00:56:31;;;;;;;;;;;19.70;67.50;;;;;;5054934;28;19929;-61
2022/11/16 00:58:57;;;;;;;;;;;19.70;67.50;;;;;;5054419;28;19948;-61
2022/11/16 01:01:22;;;;;;;;;;;19.70;67.50;;;;;;5054611;28;20288;-60
2022/11/16 01:03:48;;;;;;;;;;;19.70;67.50;;;;;;5055071;28;19931;-61
2022/11/16 01:06:13;;;;;;;;;;;19.70;67.50;;;;;;5053515;28;19951;-61
2022/11/16 01:08:39;;;;;;;;;;;19.70;67.50;;;;;;5054821;28;20047;-61
2022/11/16 01:13:49;;;;;;;;;;;19.60;67.50;;;;;;5053972;28;19924;-61
2022/11/16 01:16:15;;;;;;;;;;;19.70;67.50;;;;;;5054699;28;19925;-61
2022/11/16 01:18:40;;;;;;;;;;;19.60;67.50;;;;;;5054532;28;19980;-61
2022/11/16 01:21:06;;;;;;;;;;;19.60;67.50;;;;;;5053746;28;20006;-61
2022/11/16 01:23:31;;;;;;;;;;;19.60;67.50;;;;;;5053930;28;19983;-61
2022/11/16 01:26:00;;;;;;;;;;;19.60;67.50;;;;;;5054192;28;19968;-61
2022/11/16 01:28:29;;;;;;;;;;;19.60;67.50;;;;;;5035579;28;19924;-61
2022/11/16 01:30:54;;;;;;;;;;;19.60;67.50;;;;;;5054587;28;19932;-61
2022/11/16 01:33:20;;;;;;;;;;;19.60;68.10;;;;;;5054403;28;19932;-61
2022/11/16 01:35:45;;;;;;;;;;;19.60;67.50;;;;;;5053591;28;19983;-61
2022/11/16 01:38:11;;;;;;;;;;;19.60;67.50;;;;;;5054070;28;19972;-61
2022/11/16 01:40:36;;;;;;;;;;;19.60;68.10;;;;;;5053631;28;19959;-61
2022/11/16 01:43:02;;;;;;;;;;;19.60;67.50;;;;;;5054420;28;20011;-60
2022/11/16 01:45:45;;;;;;;;;;;19.60;67.50;;;;;;5053914;28;19979;-61
2022/11/16 01:48:13;;;;;;;;;;;19.60;67.50;;;;;;5053030;28;19925;-61
2022/11/16 01:50:39;;;;;;;;;;;19.60;67.40;;;;;;5054055;28;20364;-61
2022/11/16 01:53:04;;;;;;;;;;;19.60;67.50;;;;;;5069155;28;19932;-61
2022/11/16 01:55:31;;;;;;;;;;;19.60;67.50;;;;;;5053150;28;19935;-61
2022/11/16 01:57:56;;;;;;;;;;;19.50;67.40;;;;;;5069586;28;19983;-61
2022/11/16 02:00:21;;;;;;;;;;;19.50;67.40;;;;;;5053217;28;19925;-61
2022/11/16 02:02:47;;;;;;;;;;;19.50;67.40;;;;;;5053251;28;20012;-61
2022/11/16 02:05:15;;;;;;;;;;;19.50;67.40;;;;;;5053556;28;19978;-61
2022/11/16 02:10:41;;;;;;;;;;;19.50;67.40;;;;;;5065569;28;20300;-61
2022/11/16 02:13:11;;;;;;;;;;;19.50;67.40;;;;;;5069077;28;20433;-61
2022/11/16 02:15:44;;;;;;;;;;;19.50;67.40;;;;;;5068404;28;20439;-61
2022/11/16 02:18:09;;;;;;;;;;;19.50;67.40;;;;;;5068910;28;19932;-61
2022/11/16 02:20:53;;;;;;;;;;;19.50;67.40;;;;;;5053581;28;19921;-61
2022/11/16 02:23:18;;;;;;;;;;;19.50;67.40;;;;;;5052372;28;19925;-61
2022/11/16 02:26:03;;;;;;;;;;;19.50;67.40;;;;;;5052435;28;19978;-61
2022/11/16 02:28:47;;;;;;;;;;;19.50;67.40;;;;;;5053223;28;20015;-61
2022/11/16 02:31:14;;;;;;;;;;;19.50;67.40;;;;;;5052369;28;19964;-61
2022/11/16 02:33:39;;;;;;;;;;;19.50;67.40;;;;;;5053185;28;19920;-60
2022/11/16 02:36:05;;;;;;;;;;;19.50;67.40;;;;;;5053334;28;19932;-61
2022/11/16 02:38:32;;;;;;;;;;;19.50;67.40;;;;;;5067457;28;19928;-61
2022/11/16 02:41:02;;;;;;;;;;;19.40;67.40;;;;;;5053382;28;19921;-61
2022/11/16 02:43:28;;;;;;;;;;;19.50;67.40;;;;;;5052984;28;19925;-61
2022/11/16 02:45:54;;;;;;;;;;;19.40;67.40;;;;;;5067716;28;19921;-61
2022/11/16 02:48:21;;;;;;;;;;;19.40;67.40;;;;;;5052768;28;20451;-61
2022/11/16 02:50:47;;;;;;;;;;;19.40;67.30;;;;;;5067828;28;19925;-61
2022/11/16 02:53:13;;;;;;;;;;;19.40;67.40;;;;;;5052370;28;20439;-61
2022/11/16 02:55:38;;;;;;;;;;;19.40;67.40;;;;;;5053063;28;20091;-61
2022/11/16 02:58:04;;;;;;;;;;;19.40;67.40;;;;;;5052051;28;19925;-61
2022/11/16 03:00:33;;;;;;;;;;;19.40;67.40;;;;;;5068203;28;19933;-61
2022/11/16 03:03:15;;;;;;;;;;;19.40;67.30;;;;;;5068552;28;19924;-61
2022/11/16 03:05:47;;;;;;;;;;;19.40;67.30;;;;;;5051662;28;19929;-61
2022/11/16 03:08:15;;;;;;;;;;;19.40;67.40;;;;;;5068131;28;19975;-61
2022/11/16 03:13:26;;;;;;;;;;;19.40;67.40;;;;;;5064903;28;19925;-61
2022/11/16 03:15:51;;;;;;;;;;;19.40;67.40;;;;;;5067854;28;20433;-61
2022/11/16 03:18:17;;;;;;;;;;;19.40;67.40;;;;;;5067740;28;19925;-61
2022/11/16 03:20:43;;;;;;;;;;;19.40;67.40;;;;;;5051633;28;19929;-61
2022/11/16 03:23:09;;;;;;;;;;;19.40;67.40;;;;;;5052194;28;19925;-60
2022/11/16 03:25:39;;;;;;;;;;;19.40;67.40;;;;;;5052360;28;19928;-61
2022/11/16 03:28:06;;;;;;;;;;;19.40;67.40;;;;;;5051671;28;19925;-61
2022/11/16 03:30:33;;;;;;;;;;;19.40;67.40;;;;;;5051794;28;20376;-61
2022/11/16 03:33:04;;;;;;;;;;;19.40;67.40;;;;;;5067950;28;19925;-61
2022/11/16 03:35:31;;;;;;;;;;;19.40;67.40;;;;;;5034444;28;19925;-60
2022/11/16 03:37:57;;;;;;;;;;;19.40;67.40;;;;;;5070807;28;19928;-61
2022/11/16 03:40:23;;;;;;;;;;;19.40;67.40;;;;;;5071195;28;19952;-61
2022/11/16 03:42:48;;;;;;;;;;;19.40;67.40;;;;;;5056510;28;19925;-61
2022/11/16 03:45:14;;;;;;;;;;;19.40;67.40;;;;;;5056175;28;19925;-61
2022/11/16 03:47:39;;;;;;;;;;;19.40;67.40;;;;;;5071343;28;19947;-61
2022/11/16 03:50:05;;;;;;;;;;;19.40;67.30;;;;;;5072059;28;19951;-61
2022/11/16 03:52:31;;;;;;;;;;;19.40;67.40;;;;;;5038079;28;19929;-61
2022/11/16 03:54:56;;;;;;;;;;;19.40;67.40;;;;;;5055593;28;20002;-61
2022/11/16 03:57:21;;;;;;;;;;;19.40;67.40;;;;;;5055854;28;19932;-61
2022/11/16 03:59:47;;;;;;;;;;;19.30;67.30;;;;;;5056076;28;19936;-61
2022/11/16 04:02:12;;;;;;;;;;;19.40;67.40;;;;;;5055103;28;19925;-61
2022/11/16 04:29:37;;;;;;;;;;;19.50;67.20;;;;;;5012987;28;19930;-61
2022/11/16 04:40:16;;;;;;;;;;;19.50;67.20;;;;;;5055370;28;19956;-60
2022/11/16 04:42:41;;;;;;;;;;;19.50;67.10;;;;;;5055665;28;19956;-61
2022/11/16 04:47:51;;;;;;;;;;;19.60;67.10;;;;;;5055015;28;19932;-61
2022/11/16 04:50:16;;;;;;;;;;;19.60;67.10;;;;;;5055033;28;19925;-61
2022/11/16 04:52:42;;;;;;;;;;;19.60;67.10;;;;;;5054244;28;19924;-61
2022/11/16 04:55:08;;;;;;;;;;;19.60;67.10;;;;;;5055230;28;19932;-61
2022/11/16 04:57:33;;;;;;;;;;;19.60;67.00;;;;;;5054930;28;19978;-61
2022/11/16 04:59:59;;;;;;;;;;;19.60;67.00;;;;;;5055119;28;19928;-61
2022/11/16 05:02:24;;;;;;;;;;;19.70;67.00;;;;;;5054413;28;19935;-61
2022/11/16 05:04:50;;;;;;;;;;;19.70;67.00;;;;;;5053020;28;20370;-61
2022/11/16 05:07:15;;;;;;;;;;;19.70;67.00;;;;;;5054034;28;20324;-61
2022/11/16 05:09:41;;;;;;;;;;;19.70;67.00;;;;;;5054653;28;19928;-61
2022/11/16 05:12:10;;;;;;;;;;;19.70;67.00;;;;;;5054242;28;19925;-61
2022/11/16 05:14:36;;;;;;;;;;;19.70;67.00;;;;;;5054970;28;19928;-61
2022/11/16 05:17:02;;;;;;;;;;;19.70;67.00;;;;;;5055054;28;20449;-61
2022/11/16 05:22:11;;;;;;;;;;;19.80;67.00;;;;;;5054610;28;19925;-61
2022/11/16 05:24:37;;;;;;;;;;;19.80;67.00;;;;;;5054237;28;19999;-61
2022/11/16 05:27:03;;;;;;;;;;;19.80;66.90;;;;;;5053734;28;19924;-61
2022/11/16 05:29:29;;;;;;;;;;;19.80;66.90;;;;;;5054157;28;19928;-61
2022/11/16 05:31:55;;;;;;;;;;;19.80;66.90;;;;;;5054394;28;19925;-61
2022/11/16 05:34:20;;;;;;;;;;;19.80;66.90;;;;;;5053374;28;19931;-61
2022/11/16 05:36:46;;;;;;;;;;;19.80;66.90;;;;;;5054410;28;19925;-61
2022/11/16 05:39:11;;;;;;;;;;;19.80;66.90;;;;;;5054068;28;19979;-61
2022/11/16 05:41:37;;;;;;;;;;;19.80;66.90;;;;;;5053532;28;19921;-61
2022/11/16 05:44:02;;;;;;;;;;;19.80;66.90;;;;;;5069598;28;19925;-61
2022/11/16 05:46:28;;;;;;;;;;;19.90;66.90;;;;;;5054226;28;19928;-61
2022/11/16 05:48:53;;;;;;;;;;;19.90;66.90;;;;;;5053577;28;19955;-61
2022/11/16 05:51:19;;;;;;;;;;;19.90;66.90;;;;;;5054088;28;19991;-61
2022/11/16 05:53:44;;;;;;;;;;;19.90;66.90;;;;;;5053337;28;19966;-62
2022/11/16 05:56:10;;;;;;;;;;;19.90;66.90;;;;;;5053852;28;19937;-61
2022/11/16 05:58:36;;;;;;;;;;;19.90;66.80;;;;;;5053814;28;19979;-61
2022/11/16 06:01:01;;;;;;;;;;;19.90;66.90;;;;;;5053110;28;19928;-61
2022/11/16 06:03:27;;;;;;;;;;;19.90;66.80;;;;;;5053452;28;19932;-61
2022/11/16 06:05:56;;;;;;;;;;;19.90;66.80;;;;;;5054040;28;19925;-61
2022/11/16 06:08:21;;;;;;;;;;;19.90;66.80;;;;;;5052519;28;20402;-61
2022/11/16 06:10:47;;;;;;;;;;;19.90;66.80;;;;;;5053965;28;19925;-61
2022/11/16 06:13:12;;;;;;;;;;;19.90;66.80;;;;;;5053502;28;19971;-62
2022/11/16 06:15:38;;;;;;;;;;;19.90;66.80;;;;;;5053106;28;19925;-61
2022/11/16 06:18:03;;;;;;;;;;;20.00;66.90;;;;;;5053815;28;20396;-61
2022/11/16 06:20:29;;;;;;;;;;;19.90;66.80;;;;;;5053053;28;19932;-61
2022/11/16 06:22:54;;;;;;;;;;;20.00;66.80;;;;;;5052432;28;20376;-61
2022/11/16 06:25:20;;;;;;;;;;;20.00;66.80;;;;;;5052797;28;19931;-61
2022/11/16 06:27:45;;;;;;;;;;;20.00;66.90;;;;;;5035404;28;20426;-61
2022/11/16 06:30:11;;;;;;;;;;;20.00;66.90;;;;;;5052211;28;20015;-61
2022/11/16 06:32:36;;;;;;;;;;;20.00;66.80;;;;;;5053503;28;19924;-61
2022/11/16 06:35:02;;;;;;;;;;;20.00;66.80;;;;;;5035738;28;19932;-60
2022/11/16 06:37:27;;;;;;;;;;;20.00;66.80;;;;;;5052098;28;19971;-61
2022/11/16 06:39:53;;;;;;;;;;;20.00;66.80;;;;;;5052857;28;19925;-61
2022/11/16 06:42:18;;;;;;;;;;;20.00;66.80;;;;;;5053082;28;19925;-61
2022/11/16 06:44:43;;;;;;;;;;;20.00;66.80;;;;;;5034769;28;19970;-61
2022/11/16 06:47:09;;;;;;;;;;;20.00;66.70;;;;;;5053094;28;19967;-61
2022/11/16 06:49:34;;;;;;;;;;;20.00;66.80;;;;;;5053039;28;19932;-61
2022/11/16 06:52:00;;;;;;;;;;;20.00;66.70;;;;;;5052175;28;20046;-61
2022/11/16 06:54:25;;;;;;;;;;;20.00;66.80;;;;;;5052187;28;20284;-60
2022/11/16 06:56:51;;;;;;;;;;;20.00;66.70;;;;;;5052772;28;19978;-61
2022/11/16 06:59:16;;;;;;;;;;;20.00;66.70;;;;;;5051852;28;19925;-61
2022/11/16 07:01:42;;;;;;;;;;;20.00;66.70;;;;;;5052878;28;20003;-61
2022/11/16 07:04:10;;;;;;;;;;;20.00;66.70;;;;;;5052019;28;19925;-65
2022/11/16 07:06:36;;;;;;;;;;;20.00;66.70;;;;;;5053000;28;19925;-61
2022/11/16 07:09:05;;;;;;;;;;;20.00;66.70;;;;;;5034593;28;19979;-61
2022/11/16 07:11:31;;;;;;;;;;;20.00;66.70;;;;;;5051624;28;19935;-60
2022/11/16 07:13:56;;;;;;;;;;;20.00;66.70;;;;;;5052808;28;19997;-60
2022/11/16 07:16:22;;;;;;;;;;;20.00;66.80;;;;;;5052440;28;19960;-61
2022/11/16 07:18:47;;;;;;;;;;;20.00;66.70;;;;;;5051829;28;19925;-60
2022/11/16 07:21:13;;;;;;;;;;;20.10;66.80;;;;;;5052100;28;20395;-61
2022/11/16 07:23:39;;;;;;;;;;;20.10;66.80;;;;;;5051976;28;20376;-61
2022/11/16 07:26:05;;;;;;;;;;;20.10;66.90;;;;;;5051937;28;19975;-61
2022/11/16 07:28:30;;;;;;;;;;;20.10;66.80;;;;;;5052335;28;20418;-60
2022/11/16 07:31:05;;;;;;;;;;;20.10;66.90;;;;;;5052516;28;19925;-60
2022/11/16 07:33:31;;;;;;;;;;;20.00;66.80;;;;;;5051313;28;19956;-61
2022/11/16 07:36:00;;;;;;;;;;;20.10;66.90;;;;;;5066335;28;20371;-61
2022/11/16 07:38:26;;;;;;;;;;;20.00;66.90;;;;;;5061853;28;19932;-61
2022/11/16 07:40:51;;;;;;;;;;;20.10;67.10;;;;;;5036307;28;19925;-61
2022/11/16 07:43:17;;;;;;;;;;;20.00;67.00;;;;;;5052327;28;19928;-61
2022/11/16 07:45:42;;;;;;;;;;;20.10;67.20;;;;;;5052181;28;19925;-60
2022/11/16 07:48:07;;;;;;;;;;;20.10;67.30;;;;;;5051427;28;19986;-61
2022/11/16 07:50:34;;;;;;;;;;;20.10;67.30;;;;;;5051999;28;20388;-61
2022/11/16 07:52:59;;;;;;;;;;;20.10;67.30;;;;;;5052117;28;19931;-61
2022/11/16 07:55:30;;;;;;;;;;;20.10;67.30;;;;;;5051139;28;19921;-60
2022/11/16 07:57:55;;;;;;;;;;;20.20;67.30;;;;;;5052407;28;19932;-60
2022/11/16 08:00:22;;;;;;;;;;;20.20;67.40;;;;;;5050987;28;19924;-60
2022/11/16 08:02:47;;;;;;;;;;;20.20;67.40;;;;;;5052553;28;20383;-61
2022/11/16 08:05:13;;;;;;;;;;;20.10;67.40;;;;;;5054566;28;19968;-61
2022/11/16 08:07:38;;;;;;;;;;;20.20;67.40;;;;;;5051103;28;19925;-60
2022/11/16 08:10:04;;;;;;;;;;;20.20;67.50;;;;;;5034242;28;19925;-62
2022/11/16 08:12:29;;;;;;;;;;;20.20;67.50;;;;;;5051951;28;19980;-61
2022/11/16 08:14:55;;;;;;;;;;;20.20;67.50;;;;;;5060153;28;20372;-60
2022/11/16 08:17:20;;;;;;;;;;;20.20;67.50;;;;;;5061904;28;19928;-61
2022/11/16 08:19:46;;;;;;;;;;;20.20;67.50;;;;;;5059954;28;20364;-63
2022/11/16 08:22:11;;;;;;;;;;;20.20;67.50;;;;;;5051094;28;19960;-72
2022/11/16 08:24:37;;;;;;;;;;;20.20;67.50;;;;;;5036933;28;19944;-60
2022/11/16 08:27:02;;;;;;;;;;;20.20;67.70;;;;;;5055684;28;19932;-60
2022/11/16 08:29:28;;;;;;;;;;;20.20;67.70;;;;;;5052084;28;19929;-60
2022/11/16 08:31:54;;;;;;;;;;;20.20;67.80;;;;;;5055214;28;19954;-61
2022/11/16 08:34:20;;;;;;;;;;;20.30;67.80;;;;;;5054881;28;19932;-61
2022/11/16 08:36:45;;;;;;;;;;;20.20;67.80;;;;;;5054621;28;20020;-62
2022/11/16 08:39:11;;;;;;;;;;;20.30;67.80;;;;;;5054587;28;20027;-62
2022/11/16 08:41:36;;;;;;;;;;;20.30;67.80;;;;;;5054645;28;19971;-61
2022/11/16 08:44:02;;;;;;;;;;;20.30;67.80;;;;;;5054319;28;20011;-61
2022/11/16 08:46:27;;;;;;;;;;;20.30;67.80;;;;;;5054950;28;19925;-61
2022/11/16 08:48:56;;;;;;;;;;;20.20;67.70;;;;;;5057465;28;20397;-61
2022/11/16 08:51:21;;;;;;;;;;;20.20;67.70;;;;;;5053387;28;19956;-60
2022/11/16 08:53:48;;;;;;;;;;;20.30;67.80;;;;;;5053006;28;20372;-61
2022/11/16 08:56:13;;;;;;;;;;;20.20;67.70;;;;;;5053049;28;19931;-61
2022/11/16 08:58:42;;;;;;;;;;;20.20;67.70;;;;;;5052796;28;19924;-60
2022/11/16 09:01:14;;;;;;;;;;;20.20;67.70;;;;;;5053565;28;19951;-61
2022/11/16 09:03:40;;;;;;;;;;;20.20;67.70;;;;;;5052540;28;19962;-61
2022/11/16 09:06:05;;;;;;;;;;;20.20;67.70;;;;;;5053468;28;20374;-61
2022/11/16 09:08:31;;;;;;;;;;;20.20;67.70;;;;;;5054545;28;19935;-60
2022/11/16 09:10:57;;;;;;;;;;;20.20;67.60;;;;;;5054167;28;19935;-60
2022/11/16 09:13:22;;;;;;;;;;;20.20;67.70;;;;;;5054561;28;19925;-61
2022/11/16 09:15:54;;;;;;;;;;;20.20;67.60;;;;;;5054946;28;20372;-60
2022/11/16 09:18:19;;;;;;;;;;;20.10;67.70;;;;;;5035960;28;19924;-61
2022/11/16 09:20:44;;;;;;;;;;;20.20;67.80;;;;;;5054965;28;20031;-60
2022/11/16 09:23:10;;;;;;;;;;;20.10;67.70;;;;;;5054204;28;19982;-61
2022/11/16 09:25:35;;;;;;;;;;;20.20;67.70;;;;;;5053803;28;19925;-61
2022/11/16 09:28:01;;;;;;;;;;;20.20;67.80;;;;;;5055038;28;19974;-61
2022/11/16 09:30:26;;;;;;;;;;;20.20;67.80;;;;;;5054672;28;20288;-61
2022/11/16 09:32:52;;;;;;;;;;;20.20;67.70;;;;;;5053969;28;19924;-61
2022/11/16 09:35:19;;;;;;;;;;;20.20;67.80;;;;;;5054448;28;19964;-60
2022/11/16 09:37:45;;;;;;;;;;;20.20;67.80;;;;;;5054402;28;20335;-61
2022/11/16 09:40:11;;;;;;;;;;;20.20;67.70;;;;;;5053358;28;19924;-60
2022/11/16 09:42:41;;;;;;;;;;;20.20;67.80;;;;;;5054452;28;19924;-61
2022/11/16 09:45:13;;;;;;;;;;;20.10;67.70;;;;;;5069963;28;19924;-61
2022/11/16 09:47:48;;;;;;;;;;;20.10;67.70;;;;;;5053514;28;20011;-61
2022/11/16 09:50:16;;;;;;;;;;;20.10;67.70;;;;;;5053893;28;19932;-61
2022/11/16 09:52:42;;;;;;;;;;;20.10;67.70;;;;;;5069427;28;20380;-61
2022/11/16 09:55:26;;;;;;;;;;;20.10;67.70;;;;;;5053189;28;20396;-61
2022/11/16 09:57:52;;;;;;;;;;;20.10;67.70;;;;;;5053917;28;19929;-61
2022/11/16 10:00:19;;;;;;;;;;;20.10;67.70;;;;;;5068610;28;19925;-61
2022/11/16 10:02:46;;;;;;;;;;;20.10;67.70;;;;;;5069227;28;20384;-61
2022/11/16 10:05:22;;;;;;;;;;;20.10;67.70;;;;;;5053518;28;20288;-61
2022/11/16 10:07:51;;;;;;;;;;;20.10;67.70;;;;;;5068927;28;19932;-61
2022/11/16 10:10:19;;;;;;;;;;;20.10;67.70;;;;;;5053313;28;20364;-60
2022/11/16 10:12:50;;;;;;;;;;;20.10;67.70;;;;;;5054028;28;19924;-60
2022/11/16 10:15:15;;;;;;;;;;;20.10;67.70;;;;;;5052814;28;19956;-61
2022/11/16 10:17:51;;;;;;;;;;;20.10;67.70;;;;;;5053787;28;19991;-60
2022/11/16 10:20:22;;;;;;;;;;;20.20;67.80;;;;;;5068739;28;19921;-61
2022/11/16 10:22:57;;;;;;;;;;;20.10;67.70;;;;;;5068199;28;19958;-59
2022/11/16 10:25:23;;;;;;;;;;;20.10;67.70;;;;;;5068300;28;20007;-60
2022/11/16 10:28:08;;;;;;;;;;;20.20;67.80;;;;;;5068295;28;19994;-60
2022/11/16 10:30:34;;;;;;;;;;;20.20;67.80;;;;;;5053299;28;19925;-59
2022/11/16 10:33:15;;;;;;;;;;;20.10;67.70;;;;;;5068155;28;20133;-59
2022/11/16 10:35:45;;;;;;;;;;;20.20;67.80;;;;;;5068170;28;19925;-60
2022/11/16 10:38:14;;;;;;;;;;;20.20;67.80;;;;;;5068391;28;19932;-59
2022/11/16 10:40:41;;;;;;;;;;;20.20;67.80;;;;;;5053458;28;19979;-59
2022/11/16 10:43:13;;;;;;;;;;;20.20;67.80;;;;;;5052446;28;19925;-60
2022/11/16 10:45:42;;;;;;;;;;;20.20;67.80;;;;;;5052725;28;19931;-59
2022/11/16 10:48:13;;;;;;;;;;;20.20;67.80;;;;;;5035530;28;19936;-60
2022/11/16 10:50:45;;;;;;;;;;;20.20;67.80;;;;;;5052410;28;19928;-60
2022/11/16 10:53:12;;;;;;;;;;;20.20;67.80;;;;;;5034621;28;19965;-59
2022/11/16 10:55:38;;;;;;;;;;;20.20;67.80;;;;;;5052900;28;20448;-59
2022/11/16 10:58:04;;;;;;;;;;;20.10;67.70;;;;;;5052401;28;20012;-60
2022/11/16 11:00:33;;;;;;;;;;;20.20;67.80;;;;;;5052861;28;19935;-60
2022/11/16 11:02:59;;;;;;;;;;;20.20;67.70;;;;;;5035235;28;19925;-59
2022/11/16 11:05:25;;;;;;;;;;;20.20;67.70;;;;;;5051798;28;19931;-59
2022/11/16 11:07:58;;;;;;;;;;;20.10;67.70;;;;;;5035546;28;20007;-60
2022/11/16 11:10:26;;;;;;;;;;;20.10;67.70;;;;;;5034202;28;19924;-60
2022/11/16 11:13:10;;;;;;;;;;;20.20;67.80;;;;;;5052525;28;19979;-59
2022/11/16 11:15:36;;;;;;;;;;;20.10;67.70;;;;;;5052805;28;20361;-59
2022/11/16 11:18:20;;;;;;;;;;;20.10;67.70;;;;;;5034384;28;19928;-60
2022/11/16 11:20:47;;;;;;;;;;;20.10;67.70;;;;;;5052761;28;19966;-60
2022/11/16 11:23:13;;;;;;;;;;;20.10;67.70;;;;;;5052220;28;19986;-60
2022/11/16 11:25:40;;;;;;;;;;;20.10;67.70;;;;;;5051539;28;19935;-60
2022/11/16 11:28:06;;;;;;;;;;;20.10;67.70;;;;;;5052939;28;19991;-60
2022/11/16 11:30:31;;;;;;;;;;;20.10;67.70;;;;;;5052376;28;20362;-60
2022/11/16 11:32:56;;;;;;;;;;;20.10;67.70;;;;;;5067382;28;19928;-60
2022/11/16 11:35:23;;;;;;;;;;;20.10;67.70;;;;;;5052288;28;20364;-60
2022/11/16 11:37:49;;;;;;;;;;;20.10;67.70;;;;;;5068108;28;19932;-60
2022/11/16 11:40:25;;;;;;;;;;;20.20;67.80;;;;;;5067061;28;20011;-60
2022/11/16 11:42:51;;;;;;;;;;;20.10;67.70;;;;;;5052748;28;19932;-60
2022/11/16 11:45:17;;;;;;;;;;;20.10;67.70;;;;;;5067824;28;19924;-60
2022/11/16 11:47:55;;;;;;;;;;;20.10;67.70;;;;;;5067425;28;20387;-60
2022/11/16 11:50:21;;;;;;;;;;;20.20;67.70;;;;;;5067513;28;20015;-60
2022/11/16 11:53:04;;;;;;;;;;;20.10;67.70;;;;;;5051937;28;20012;-60
2022/11/16 11:55:30;;;;;;;;;;;20.20;67.80;;;;;;5067776;28;19925;-60
2022/11/16 11:57:55;;;;;;;;;;;20.20;67.80;;;;;;5049419;28;20007;-60
2022/11/16 12:00:21;;;;;;;;;;;20.10;67.90;;;;;;5075174;28;19925;-60
2022/11/16 12:02:46;;;;;;;;;;;20.20;68.00;;;;;;5076001;28;19925;-60
2022/11/16 12:05:22;;;;;;;;;;;20.20;68.10;;;;;;5075782;28;20401;-59
2022/11/16 12:07:47;;;;;;;;;;;20.20;68.20;;;;;;5075559;28;19921;-59
2022/11/16 12:10:16;;;;;;;;;;;20.10;68.20;;;;;;5075710;28;20031;-60
2022/11/16 12:13:01;;;;;;;;;;;20.10;68.20;;;;;;5091507;28;20011;-59
2022/11/16 12:15:32;;;;;;;;;;;20.20;68.30;;;;;;5074779;28;20322;-60
2022/11/16 12:18:16;;;;;;;;;;;20.20;68.40;;;;;;5076006;28;19925;-60
2022/11/16 12:20:54;;;;;;;;;;;20.20;68.40;;;;;;5063541;28;19932;-60
2022/11/16 12:23:38;;;;;;;;;;;20.20;68.50;;;;;;5057128;28;19976;-60
2022/11/16 12:26:12;;;;;;;;;;;20.20;68.50;;;;;;5037611;28;20276;-60
2022/11/16 12:28:56;;;;;;;;;;;20.20;68.40;;;;;;5055037;28;19925;-60
2022/11/16 12:31:29;;;;;;;;;;;20.20;68.40;;;;;;5055556;28;20075;-60
2022/11/16 12:33:57;;;;;;;;;;;20.20;68.50;;;;;;5037656;28;19937;-60
2022/11/16 12:36:41;;;;;;;;;;;20.20;68.50;;;;;;5054227;28;20372;-60
2022/11/16 12:39:17;;;;;;;;;;;20.20;68.50;;;;;;5055221;28;20372;-60
2022/11/16 12:41:52;;;;;;;;;;;20.30;68.60;;;;;;5037028;28;19931;-61
2022/11/16 12:44:31;;;;;;;;;;;20.30;68.60;;;;;;5055294;28;19925;-60
2022/11/16 12:46:59;;;;;;;;;;;20.30;68.60;;;;;;5020665;28;19936;-60
2022/11/16 12:49:33;;;;;;;;;;;20.30;68.70;;;;;;5054349;28;19932;-60
2022/11/16 12:51:59;;;;;;;;;;;20.30;68.60;;;;;;5055100;28;19931;-60
2022/11/16 12:54:32;;;;;;;;;;;20.30;68.60;;;;;;5037161;28;19921;-60
2022/11/16 12:57:09;;;;;;;;;;;20.30;68.60;;;;;;5036817;28;19929;-60
2022/11/16 12:59:58;;;;;;;;;;;20.30;68.60;;;;;;5055343;28;20360;-60
2022/11/16 13:02:47;;;;;;;;;;;20.30;68.60;;;;;;5047262;28;20019;-60
2022/11/16 13:05:15;;;;;;;;;;;20.40;68.60;;;;;;5070048;28;20019;-60
2022/11/16 13:07:44;;;;;;;;;;;20.40;68.60;;;;;;5054499;28;19929;-60
2022/11/16 13:10:14;;;;;;;;;;;20.40;68.60;;;;;;5068784;28;19925;-59
2022/11/16 13:12:40;;;;;;;;;;;20.40;68.50;;;;;;5069820;28;19925;-60
2022/11/16 13:15:06;;;;;;;;;;;20.40;68.60;;;;;;5085917;28;20292;-61
2022/11/16 13:17:32;;;;;;;;;;;20.40;68.60;;;;;;5073151;28;20070;-61
2022/11/16 13:19:57;;;;;;;;;;;20.40;68.40;;;;;;5090065;28;19924;-61
2022/11/16 13:22:23;;;;;;;;;;;20.50;68.50;;;;;;5074444;28;19939;-61
2022/11/16 13:24:51;;;;;;;;;;;20.50;68.50;;;;;;5089489;28;19925;-61
2022/11/16 13:27:29;;;;;;;;;;;20.50;68.40;;;;;;5074557;28;19924;-61
2022/11/16 13:30:04;;;;;;;;;;;20.60;68.50;;;;;;5074569;28;19925;-61
2022/11/16 13:32:34;;;;;;;;;;;20.60;68.50;;;;;;5073409;28;20062;-62
2022/11/16 13:35:02;;;;;;;;;;;20.60;68.50;;;;;;5090282;28;19924;-62
2022/11/16 13:37:36;;;;;;;;;;;20.60;68.50;;;;;;5074297;28;19924;-62
2022/11/16 13:40:03;;;;;;;;;;;20.60;68.40;;;;;;5055584;28;19940;-62
2022/11/16 13:42:29;;;;;;;;;;;20.60;69.00;;;;;;5073967;28;19928;-62
2022/11/16 13:45:03;;;;;;;;;;;20.70;68.50;;;;;;5073807;28;19932;-61
2022/11/16 13:47:29;;;;;;;;;;;20.70;68.50;;;;;;5074235;28;19934;-60
2022/11/16 13:49:55;;;;;;;;;;;20.70;68.50;;;;;;5074305;28;20011;-63
2022/11/16 13:52:21;;;;;;;;;;;20.70;68.50;;;;;;5088703;28;19970;-62
2022/11/16 13:54:47;;;;;;;;;;;20.70;68.40;;;;;;5074164;28;19920;-60
2022/11/16 13:57:26;;;;;;;;;;;20.70;68.20;;;;;;5089379;28;20355;-60
2022/11/16 14:00:12;;;;;;;;;;;20.70;68.00;;;;;;5073322;28;19921;-61
2022/11/16 14:02:38;;;;;;;;;;;20.80;68.20;;;;;;5073554;28;20365;-61
2022/11/16 14:05:05;;;;;;;;;;;20.80;68.20;;;;;;5089676;28;20035;-61
2022/11/16 14:07:34;;;;;;;;;;;20.80;68.80;;;;;;5073021;28;19959;-61
2022/11/16 14:09:59;;;;;;;;;;;20.80;68.20;;;;;;5073324;28;20429;-60
2022/11/16 14:12:37;;;;;;;;;;;20.90;68.20;;;;;;5073413;28;19924;-60
2022/11/16 14:15:11;;;;;;;;;;;20.90;68.20;;;;;;5070407;28;20066;-60
2022/11/16 14:17:50;;;;;;;;;;;20.90;68.20;;;;;;5069242;28;20507;-60
2022/11/16 14:20:22;;;;;;;;;;;20.90;68.20;;;;;;5051610;28;20390;-60
2022/11/16 14:23:00;;;;;;;;;;;20.90;68.20;;;;;;5068876;28;20476;-60
2022/11/16 14:25:35;;;;;;;;;;;20.90;68.20;;;;;;5052880;28;20003;-63
2022/11/16 14:28:05;;;;;;;;;;;20.90;68.20;;;;;;5068024;28;19925;-60
2022/11/16 14:30:49;;;;;;;;;;;21.00;68.30;;;;;;5068535;28;20380;-60
2022/11/16 14:33:22;;;;;;;;;;;20.90;68.10;;;;;;5053259;28;19924;-60
2022/11/16 14:35:49;;;;;;;;;;;21.00;68.00;;;;;;5068293;28;20011;-60
2022/11/16 14:38:17;;;;;;;;;;;20.90;68.00;;;;;;5053062;28;19996;-60
2022/11/16 14:40:44;;;;;;;;;;;21.00;68.10;;;;;;5068629;28;19925;-60
2022/11/16 14:43:22;;;;;;;;;;;20.90;68.10;;;;;;5067647;28;20380;-60
2022/11/16 14:45:51;;;;;;;;;;;20.90;68.10;;;;;;5068760;28;19999;-60
2022/11/16 14:48:17;;;;;;;;;;;20.90;68.10;;;;;;5052325;28;19925;-60
2022/11/16 14:50:43;;;;;;;;;;;20.90;68.10;;;;;;5052843;28;19928;-60
2022/11/16 14:53:08;;;;;;;;;;;20.90;68.10;;;;;;5068486;28;19932;-60
2022/11/16 14:55:39;;;;;;;;;;;20.90;68.10;;;;;;5067574;28;20031;-60
2022/11/16 14:58:23;;;;;;;;;;;20.80;68.00;;;;;;5052819;28;20311;-60
2022/11/16 15:00:52;;;;;;;;;;;20.90;68.10;;;;;;5052233;28;19929;-61
2022/11/16 15:03:18;;;;;;;;;;;20.90;68.30;;;;;;5051219;28;20376;-61
2022/11/16 15:05:43;;;;;;;;;;;20.90;68.30;;;;;;5052140;28;19960;-61
2022/11/16 15:08:20;;;;;;;;;;;20.80;68.30;;;;;;5066464;28;19974;-60